Flight Track Log - Related Links

Times and Time Zones

All times are in EDT time to prevent confusion due to time zone crossing. See the RPA3159 flight status page for this flight to view local times or setup timezone preferences in your user account.

Time Position Orientation Groundspeed Altitude Reporting Facility
EDT Latitude Longitude Course Direction KTS MPH feet Rate Location/Type
Mon 11:53:41 AM 44.4358 -73.1958 180° South 293 337 3,400  Level Boston Center
Mon 11:54:41 AM 44.3672 -73.1950 180° South 257 296 6,100 2,800 Climbing Boston Center
Mon 11:55:41 AM 44.3003 -73.2494 210° Southwest 252 290 9,000 1,950 Climbing Boston Center
Mon 11:56:41 AM 44.2225 -73.3150 205° Southwest 290 334 10,000 1,400 Climbing Boston Center
Mon 11:57:41 AM 44.1514 -73.3747 211° Southwest 301 346 11,800 1,750 Climbing Boston Center
Mon 11:58:41 AM 44.0967 -73.4200 211° Southwest 310 357 13,500 2,450 Climbing Boston Center
Mon 11:59:41 AM 43.9939 -73.5078 212° Southwest 332 382 16,700 2,600 Climbing Boston Center
Mon 12:00:41 PM 43.9097 -73.5756 210° Southwest 346 398 18,700 2,150 Climbing Boston Center
Mon 12:01:41 PM 43.8278 -73.6458 212° Southwest 346 398 21,000 2,000 Climbing Boston Center
Mon 12:02:41 PM 43.7417 -73.7161 211° Southwest 346 398 22,700 1,400 Climbing Boston Center
Mon 12:03:41 PM 43.6744 -73.7692 210° Southwest 352 405 23,800 591 Climbing Boston Center
Mon 12:04:53 PM 43.5544 -73.8639 210° Southwest 373 429 24,000 91 Climbing Boston Center
Mon 12:05:53 PM 43.4639 -73.9392 211° Southwest 378 435 24,000  Level Boston Center
Mon 12:06:53 PM 43.3647 -74.0194 210° Southwest 383 441 24,000  Level Boston Center
Mon 12:07:53 PM 43.2742 -74.0911 210° Southwest 383 441 24,000  Level Boston Center
Mon 12:08:53 PM 43.1836 -74.1656 211° Southwest 383 441 24,000  Level Boston Center
Mon 12:09:53 PM 43.0928 -74.2369 210° Southwest 383 441 24,000  Level Boston Center
Mon 12:10:53 PM 43.0039 -74.3111 211° Southwest 383 441 24,000  Level Boston Center
Mon 12:11:53 PM 42.9153 -74.3819 210° Southwest 383 441 24,000  Level Boston Center
Mon 12:12:53 PM 42.8222 -74.4556 210° Southwest 383 441 24,000  Level Boston Center
Mon 12:13:53 PM 42.7336 -74.5261 210° Southwest 383 441 24,000  Level Boston Center
Mon 12:14:53 PM 42.6447 -74.5967 210° Southwest 383 441 24,000  Level Boston Center
Mon 12:15:53 PM 42.5536 -74.6694 210° Southwest 383 441 24,000 -50 Level Boston Center
Mon 12:16:53 PM 42.4817 -74.7233 209° Southwest 383 441 23,900 -550 Descending Boston Center
Mon 12:17:53 PM 42.3758 -74.8067 210° Southwest 383 441 22,900 -833 Descending Boston Center
Mon 12:19:53 PM 42.2128 -74.9286 209° Southwest 383 441 21,400 -809 Descending New York Center
Mon 12:20:51 PM 42.1183 -75.0094 212° Southwest 377 434 20,500 -857 Descending New York Center
Mon 12:21:52 PM 42.0347 -75.0767 211° Southwest 366 421 19,700 -738 Descending New York Center
Mon 12:22:53 PM 41.9531 -75.1467 213° Southwest 360 414 19,000 -353 Descending New York Center
Mon 12:23:51 PM 41.8694 -75.2133 211° Southwest 354 407 19,000 -353 Level New York Center
Mon 12:24:52 PM 41.7878 -75.2775 210° Southwest 354 407 18,300 -1,140 Descending New York Center
Mon 12:25:52 PM 41.7147 -75.3364 211° Southwest 348 400 16,700 -1,613 Descending New York Center
Mon 12:26:51 PM 41.6289 -75.4056 211° Southwest 348 400 15,100 -1,462 Descending New York Center
Mon 12:27:51 PM 41.5514 -75.4694 212° Southwest 343 395 13,800 -1,328 Descending New York Center
Mon 12:28:53 PM 41.4739 -75.5306 211° Southwest 333 383 12,400 -900 Descending New York Center
Mon 12:29:51 PM 41.4072 -75.5839 211° Southwest 333 383 12,000 -203 Descending New York Center
Mon 12:30:51 PM 41.3233 -75.6497 211° Southwest 328 377 12,000  Level New York Center
Mon 12:31:52 PM 41.2508 -75.6886 202° Southwest 323 372 12,000 -397 Level New York Center
Mon 12:32:52 PM 41.1578 -75.6764 174° South 312 359 11,200 -934 Descending New York Center
Mon 12:33:54 PM 41.0714 -75.6453 165° South 312 359 10,100 -605 Descending New York Center
Mon 12:34:51 PM 40.9850 -75.6169 166° South 317 365 10,000 -51 Descending New York Center
Mon 12:35:51 PM 40.9092 -75.5897 165° South 317 365 10,000  Level New York Center
Mon 12:36:53 PM 40.8269 -75.5592 164° South 317 365 10,000  Level New York Center
Mon 12:37:52 PM 40.7428 -75.5314 166° South 317 365 10,000  Level New York Center
Mon 12:38:52 PM 40.6564 -75.5008 165° South 317 365 10,000  Level New York Center
Mon 12:39:51 PM 40.5764 -75.4733 165° South 312 359 10,000  Level New York Center
Mon 12:40:51 PM 40.5000 -75.4492 166° South 300 345 10,000  Level New York Center
Mon 12:41:52 PM 40.4164 -75.4053 158° South 292 336 10,000 -446 Level New York Center
Mon 12:42:52 PM 40.3453 -75.3597 154° Southeast 292 336 9,100 -1,311 Descending New York Center
Mon 12:43:51 PM 40.2800 -75.3200 155° Southeast 292 336 7,400 -1,050 Descending New York Center
Mon 12:44:52 PM 40.2047 -75.2742 155° Southeast 292 336 7,000 -532 Descending New York Center
Mon 12:45:55 PM 40.1167 -75.2167 153° Southeast 283 326 6,300 -465 Descending Philadelphia TRACON
Mon 12:47:01 PM 40.0500 -75.1667 150° Southeast 282 325 6,000 -143 Descending Philadelphia TRACON
Mon 12:48:01 PM 40.0000 -75.1167 143° Southeast 226 260 6,000 -50 Level Philadelphia TRACON
Mon 12:49:01 PM 40.0000 -75.0333 90° East 215 247 5,900 -500 Descending Philadelphia TRACON
Mon 12:50:01 PM 40.0167 -74.9667 72° East 197 227 5,000 -650 Descending Philadelphia TRACON
Mon 12:51:01 PM 40.0167 -74.9000 90° East 200 230 4,600 -579 Descending Philadelphia TRACON
Mon 12:51:55 PM 40.0000 -74.8500 114° Southeast 185 213 3,900 -316 Descending Philadelphia TRACON
Mon 12:52:55 PM 39.9667 -74.9000 229° Southwest 173 199 4,000 -300 Climbing Philadelphia TRACON
Mon 12:53:55 PM 39.9333 -74.9333 217° Southwest 171 197 3,300 -500 Descending Philadelphia TRACON
Mon 12:54:55 PM 39.9167 -75.0000 252° West 168 193 3,000 -400 Descending Philadelphia TRACON
Mon 12:55:55 PM 39.9167 -75.0500 270° West 168 193 2,500 -500 Descending Philadelphia TRACON

Login

Don't have an account? Register now (free) for customized features, flight alerts, and more!